Flight Track Log - Related Links

Times and Time Zones

All times are in EDT time to prevent confusion due to time zone crossing. See the FIV521 flight status page for this flight to view local times or setup timezone preferences in your user account.

Time Position Orientation Groundspeed Altitude Reporting Facility
EDT Latitude Longitude Course Direction KTS MPH feet Rate Location/Type
Thu 10:41:52 AM 33.8500 -84.2333 54° Northeast 200 230 4,900  Level Atlanta TRACON
Thu 10:42:52 AM 33.8500 -84.1667 90° East 229 264 5,000 50 Climbing Atlanta TRACON
Thu 10:43:52 AM 33.8667 -84.0833 76° East 232 267 5,000 50 Level Atlanta TRACON
Thu 10:44:52 AM 33.8667 -84.0167 90° East 231 266 5,100 1,200 Climbing Atlanta TRACON
Thu 10:45:52 AM 33.8667 -83.9333 90° East 253 291 7,400 2,412 Climbing Atlanta TRACON
Thu 10:46:34 AM 33.8692 -83.8661 87° East 280 322 9,200 2,059 Climbing Atlanta Center
Thu 10:47:00 AM 33.9984 -83.5859 54° Northeast  Level FlightAware Approximate
Thu 10:47:34 AM 33.8900 -83.7686 76° East 299 344 10,900  Level Atlanta Center
Thu 10:48:34 AM 33.9544 -83.6756 50° Northeast 320 368 12,400 1,500 Climbing Atlanta Center
Thu 10:49:34 AM 34.0147 -83.5803 53° Northeast 344 396 13,900 1,500 Climbing Atlanta Center
Thu 10:50:34 AM 34.0747 -83.4844 53° Northeast 362 417 15,400 1,500 Climbing Atlanta Center
Thu 10:51:34 AM 34.1369 -83.3839 53° Northeast 362 417 16,900 1,450 Climbing Atlanta Center
Thu 10:52:34 AM 34.2011 -83.2853 52° Northeast 362 417 18,300 1,050 Climbing Atlanta Center
Thu 10:53:34 AM 34.2650 -83.1842 53° Northeast 367 422 19,000 800 Climbing Atlanta Center
Thu 10:54:34 AM 34.3331 -83.0778 52° Northeast 384 442 19,900 950 Climbing Atlanta Center
Thu 10:55:34 AM 34.4075 -82.9814 47° Northeast 390 449 20,900 900 Climbing Atlanta Center
Thu 10:56:34 AM 34.4819 -82.8997 42° Northeast 390 449 21,700 900 Climbing Atlanta Center
Thu 10:57:34 AM 34.5644 -82.8128 41° Northeast 390 449 22,700 1,000 Climbing Atlanta Center
Thu 10:58:34 AM 34.6450 -82.7283 41° Northeast 384 442 23,700 1,000 Climbing Atlanta Center
Thu 10:59:34 AM 34.7233 -82.6311 46° Northeast 384 442 24,700 1,000 Climbing Atlanta Center
Thu 11:00:34 AM 34.7908 -82.5186 54° Northeast 393 452 25,700 1,000 Climbing Atlanta Center
Thu 11:01:34 AM 34.8583 -82.4061 54° Northeast 400 460 26,700 1,000 Climbing Atlanta Center
Thu 11:02:34 AM 34.9275 -82.2958 53° Northeast 413 475 27,700 1,000 Climbing Atlanta Center
Thu 11:03:34 AM 34.9992 -82.1853 52° Northeast 413 475 28,700 1,000 Climbing Atlanta Center
Thu 11:04:34 AM 35.0831 -82.0919 42° Northeast 407 468 29,700 1,000 Climbing Atlanta Center
Thu 11:05:34 AM 35.1778 -82.0033 37° Northeast 412 474 30,700 1,000 Climbing Atlanta Center
Thu 11:06:34 AM 35.2742 -81.9119 38° Northeast 423 487 31,700 1,000 Climbing Atlanta Center
Thu 11:07:34 AM 35.3644 -81.8281 37° Northeast 423 487 32,700 1,100 Climbing Atlanta Center
Thu 11:08:34 AM 35.4672 -81.7336 37° Northeast 423 487 33,900 1,350 Climbing Atlanta Center
Thu 11:09:34 AM 35.5572 -81.6469 38° Northeast 415 478 35,400 1,500 Climbing Atlanta Center
Thu 11:10:34 AM 35.6433 -81.5650 38° Northeast 404 465 36,900 1,450 Climbing Atlanta Center
Thu 11:11:34 AM 35.7292 -81.4831 38° Northeast 391 450 38,300 1,400 Climbing Atlanta Center
Thu 11:12:34 AM 35.8108 -81.4039 38° Northeast 381 438 39,700 1,250 Climbing Atlanta Center
Thu 11:13:34 AM 35.8844 -81.3322 38° Northeast 381 438 40,800 650 Climbing Atlanta Center
Thu 11:14:34 AM 35.9683 -81.2525 38° Northeast 376 433 41,000 100 Climbing Atlanta Center
Thu 11:15:34 AM 36.0539 -81.1647 40° Northeast 390 449 41,000  Level Atlanta Center
Thu 11:16:34 AM 36.1478 -81.0767 37° Northeast 413 475 41,000  Level Atlanta Center
Thu 11:17:34 AM 36.2494 -80.9750 39° Northeast 418 481 41,000  Level Atlanta Center
Thu 11:18:34 AM 36.3450 -80.8811 38° Northeast 430 495 41,000  Level Atlanta Center
Thu 11:19:34 AM 36.4386 -80.7897 38° Northeast 430 495 41,000  Level Atlanta Center
Thu 11:20:34 AM 36.5322 -80.6981 38° Northeast 430 495 41,000  Level Atlanta Center
Thu 11:21:34 AM 36.6256 -80.6036 39° Northeast 430 495 41,000  Level Atlanta Center
Thu 11:23:17 AM 36.7728 -80.4592 38° Northeast 424 488 41,000  Level Washington Center
Thu 11:24:18 AM 36.8706 -80.3639 38° Northeast 430 495 41,000  Level Washington Center
Thu 11:25:18 AM 36.9639 -80.2708 39° Northeast 430 495 41,000  Level Washington Center
Thu 11:26:19 AM 37.0594 -80.1728 39° Northeast 435 501 41,000  Level Washington Center
Thu 11:27:20 AM 37.1636 -80.0694 38° Northeast 435 501 41,000  Level Washington Center
Thu 11:28:18 AM 37.2544 -79.9781 39° Northeast 435 501 41,000  Level Washington Center
Thu 11:29:18 AM 37.3475 -79.8869 38° Northeast 435 501 41,000  Level Washington Center
Thu 11:30:19 AM 37.4383 -79.7953 39° Northeast 429 494 41,000  Level Washington Center
Thu 11:31:18 AM 37.5375 -79.7039 36° Northeast 429 494 41,000  Level Washington Center
Thu 11:32:18 AM 37.6264 -79.6064 41° Northeast 423 487 41,000  Level Washington Center
Thu 11:33:19 AM 37.7214 -79.5117 38° Northeast 423 487 41,000  Level Washington Center
Thu 11:34:17 AM 37.8056 -79.4239 39° Northeast 428 493 41,000  Level Washington Center
Thu 11:35:18 AM 37.8983 -79.3261 40° Northeast 433 498 41,000  Level Washington Center
Thu 11:36:18 AM 37.9931 -79.2281 39° Northeast 438 504 41,000  Level Washington Center
Thu 11:37:19 AM 38.0878 -79.1322 39° Northeast 438 504 41,000  Level Washington Center
Thu 11:38:17 AM 38.1931 -79.0236 39° Northeast 438 504 41,000  Level Washington Center
Thu 11:39:18 AM 38.2856 -78.9247 40° Northeast 438 504 41,000  Level Washington Center
Thu 11:40:19 AM 38.3758 -78.8256 41° Northeast 432 497 41,000  Level Washington Center
Thu 11:41:17 AM 38.4681 -78.7289 39° Northeast 432 497 41,000  Level Washington Center
Thu 11:42:18 AM 38.5603 -78.6317 39° Northeast 427 491 41,000  Level Washington Center
Thu 11:43:18 AM 38.6500 -78.5369 39° Northeast 427 491 41,000  Level Washington Center
Thu 11:44:19 AM 38.7422 -78.4369 40° Northeast 427 491 41,000  Level Washington Center
Thu 11:45:17 AM 38.8342 -78.3392 40° Northeast 427 491 41,000  Level Washington Center
Thu 11:46:18 AM 38.9258 -78.2411 40° Northeast 427 491 41,000  Level Washington Center
Thu 11:47:19 AM 39.0156 -78.1431 40° Northeast 427 491 41,000  Level Washington Center
Thu 11:48:18 AM 39.1072 -78.0472 39° Northeast 427 491 41,000  Level Washington Center
Thu 11:49:18 AM 39.1967 -77.9483 41° Northeast 427 491 41,000  Level Washington Center
Thu 11:51:17 AM 39.3706 -77.7597 40° Northeast 417 480 41,000  Level New York Center
Thu 11:52:17 AM 39.4617 -77.6611 40° Northeast 417 480 41,000  Level New York Center
Thu 11:53:17 AM 39.5486 -77.5644 41° Northeast 417 480 41,000  Level New York Center
Thu 11:54:18 AM 39.6400 -77.4628 41° Northeast 417 480 41,000  Level New York Center
Thu 11:55:18 AM 39.7333 -77.3608 40° Northeast 412 474 41,000 -151 Level New York Center
Thu 11:56:17 AM 39.8244 -77.2611 40° Northeast 418 481 40,700 -900 Descending New York Center
Thu 11:57:18 AM 39.9136 -77.1558 42° Northeast 423 487 39,200 -1,513 Descending New York Center
Thu 11:58:16 AM 40.0044 -77.0556 40° Northeast 423 487 37,700 -1,109 Descending New York Center
Thu 11:59:17 AM 40.0931 -76.9578 40° Northeast 423 487 37,000 -1,140 Descending New York Center
Thu 12:00:17 PM 40.1883 -76.8467 42° Northeast 418 481 35,400 -1,785 Descending New York Center
Thu 12:01:18 PM 40.2747 -76.7508 40° Northeast 408 470 33,400 -2,017 Descending New York Center
Thu 12:02:16 PM 40.3586 -76.6544 41° Northeast 403 464 31,400 -1,210 Descending New York Center
Thu 12:03:17 PM 40.4447 -76.5581 40° Northeast 403 464 31,000 -197 Descending New York Center
Thu 12:04:18 PM 40.5286 -76.4642 40° Northeast 398 458 31,000  Level New York Center
Thu 12:05:19 PM 40.6144 -76.3675 41° Northeast 403 464 31,000  Level New York Center
Thu 12:06:17 PM 40.7025 -76.2650 41° Northeast 408 470 31,000  Level New York Center
Thu 12:07:18 PM 40.7861 -76.1675 41° Northeast 408 470 31,000 -492 Level New York Center
Thu 12:08:19 PM 40.8719 -76.0675 41° Northeast 408 470 30,000 -942 Descending New York Center
Thu 12:09:19 PM 40.9492 -75.9744 42° Northeast 408 470 29,100 -508 Descending New York Center
Thu 12:10:17 PM 41.0344 -75.8792 40° Northeast 403 464 29,000 -50 Descending New York Center
Thu 12:11:18 PM 41.1178 -75.7808 42° Northeast 403 464 29,000  Level New York Center
Thu 12:12:17 PM 41.2033 -75.6822 41° Northeast 403 464 29,000  Level New York Center
Thu 12:13:17 PM 41.2886 -75.5808 42° Northeast 403 464 29,000  Level New York Center
Thu 12:14:18 PM 41.3761 -75.4767 42° Northeast 403 464 29,000  Level New York Center
Thu 12:15:19 PM 41.4614 -75.3772 41° Northeast 403 464 29,000  Level New York Center
Thu 12:16:16 PM 41.5486 -75.2725 42° Northeast 408 470 29,000 -1,271 Level New York Center
Thu 12:19:15 PM 41.8139 -74.9556 42° Northeast 426 490 24,000 -1,255 Descending Boston Center
Thu 12:20:15 PM 41.9097 -74.8589 37° Northeast 431 496 24,000  Level Boston Center
Thu 12:21:27 PM 42.0261 -74.8828 351° North 420 483 24,000  Level Boston Center
Thu 12:22:27 PM 42.1792 -74.9336 346° North 440 506 24,000 -200 Level Boston Center
Thu 12:23:27 PM 42.2883 -74.8986 13° North 405 466 23,600 -800 Descending Boston Center
Thu 12:24:27 PM 42.3589 -74.8144 41° Northeast 391 450 22,400 -1,756 Descending Boston Center
Thu 12:24:49 PM 42.4061 -74.7514 45° Northeast 413 475 21,200 -2,400 Descending Boston Center
Thu 12:25:27 PM 42.4531 -74.6942 42° Northeast 400 460 20,000 -2,060 Descending Boston Center
Thu 12:25:56 PM 42.5022 -74.6339 42° Northeast 403 464 18,900 -2,000 Descending Boston Center
Thu 12:26:27 PM 42.5428 -74.5847 42° Northeast 395 455 18,000 -1,967 Descending Boston Center
Thu 12:26:57 PM 42.5853 -74.5381 39° Northeast 391 450 16,900 -1,800 Descending Boston Center
Thu 12:27:27 PM 42.6131 -74.4967 48° Northeast 389 448 16,200 -2,000 Descending Boston Center
Thu 12:27:51 PM 42.6578 -74.4475 39° Northeast 377 434 15,100 -2,200 Descending Boston Center
Thu 12:28:27 PM 42.6983 -74.3950 44° Northeast 375 432 14,000 -1,967 Descending Boston Center
Thu 12:28:52 PM 42.7322 -74.3594 38° Northeast 356 410 13,100 -1,800 Descending Boston Center
Thu 12:29:27 PM 42.7642 -74.3181 44° Northeast 358 412 12,200 -2,000 Descending Boston Center
Thu 12:29:46 PM 42.7961 -74.2822 39° Northeast 335 386 11,300 -2,100 Descending Boston Center
Thu 12:30:27 PM 42.8364 -74.2294 44° Northeast 328 377 10,100 -1,967 Descending Boston Center
Thu 12:30:47 PM 42.8619 -74.2047 35° Northeast 301 346 9,300 -1,800 Descending Boston Center
Thu 12:31:27 PM 42.8917 -74.1631 46° Northeast 304 350 8,300 -1,967 Descending Boston Center
Thu 12:31:48 PM 42.9194 -74.1269 44° Northeast 285 328 7,300 -2,200 Descending Boston Center
Thu 12:32:27 PM 42.9553 -74.0856 40° Northeast 284 327 6,100 -1,900 Descending Boston Center
Thu 12:32:48 PM 42.9786 -74.0606 38° Northeast 271 312 5,400 -1,800 Descending Boston Center
Thu 12:33:27 PM 43.0064 -74.0244 44° Northeast 272 313 4,300 -1,377 Descending Boston Center
Thu 12:33:49 PM 43.0317 -73.9939 41° Northeast 263 303 4,000 -300 Descending Boston Center
Thu 12:34:27 PM 43.0656 -73.9492 44° Northeast 265 305 4,000  Level Boston Center
Thu 12:34:50 PM 43.0889 -73.9269 35° Northeast 268 308 4,000  Level Boston Center
Thu 12:35:27 PM 43.1164 -73.8878 46° Northeast 265 305 4,000 -100 Level Boston Center
Thu 12:35:50 PM 43.1439 -73.8514 44° Northeast 270 311 3,900 -600 Descending Boston Center
Thu 12:36:27 PM 43.1592 -73.8064 65° Northeast 259 298 3,400 -787 Descending Boston Center
Thu 12:36:51 PM 43.1764 -73.7639 61° Northeast 259 298 3,100 -700 Descending Boston Center
Thu 12:37:27 PM 43.1936 -73.7075 67° East 259 298 2,700 -393 Descending Boston Center
Thu 12:37:52 PM 43.2086 -73.6792 54° Northeast 253 291 2,700 -353 Level Boston Center
Thu 12:38:52 PM 43.2756 -73.6550 15° North 225 259 2,200 -393 Descending Boston Center
Thu 12:39:39 PM 43.3172 -73.6386 16° North 220 253 2,000 -255 Descending Boston Center
Thu 12:41:00 PM 43.3333 -73.6000 North  Level FlightAware Approximate
Thu 12:48:00 PM 43.3412 -73.6103 North  Level Estimated
Thu 12:49:00 PM 43.3412 -73.6103 North  Level Estimated
Thu 12:50:00 PM 43.3412 -73.6103 North  Level Estimated
Thu 12:51:00 PM 43.3412 -73.6103 North  Level Estimated
Thu 12:52:00 PM 43.3412 -73.6103 North  Level Estimated
Thu 12:53:00 PM 43.3412 -73.6103 North  Level Estimated
Thu 12:54:00 PM 43.3412 -73.6103 North  Level Estimated
Thu 12:55:00 PM 43.3412 -73.6103 North  Level Estimated
Thu 12:56:00 PM 43.3412 -73.6103 North  Level Estimated

Login

Don't have an account? Register now (free) for customized features, flight alerts, and more!